createdAt,value
2023-07-03T00:00:06.634Z,19.43
2023-07-03T00:02:35.423Z,19.65
2023-07-03T00:05:04.407Z,19.56
2023-07-03T00:07:31.108Z,19.60
2023-07-03T00:09:57.538Z,19.89
2023-07-03T00:12:23.986Z,19.87
2023-07-03T00:14:50.424Z,19.99
2023-07-03T00:17:16.899Z,19.95
2023-07-03T00:19:43.324Z,20.02
2023-07-03T00:22:09.760Z,20.07
2023-07-03T00:24:36.180Z,20.12
2023-07-03T00:27:02.637Z,20.16
2023-07-03T00:29:30.774Z,20.18
2023-07-03T00:31:57.370Z,20.12
2023-07-03T00:34:24.084Z,20.17
2023-07-03T00:36:50.505Z,20.18
2023-07-03T00:39:17.805Z,20.17
2023-07-03T00:41:44.252Z,20.18
2023-07-03T00:44:11.449Z,20.00
2023-07-03T00:49:05.871Z,20.21
2023-07-03T00:51:32.801Z,20.27
2023-07-03T00:53:59.273Z,20.27
2023-07-03T00:56:25.704Z,20.23
2023-07-03T00:58:52.189Z,20.24
2023-07-03T01:01:35.295Z,20.23
2023-07-03T01:04:04.557Z,20.26
2023-07-03T01:06:33.728Z,20.23
2023-07-03T01:09:00.460Z,20.22
2023-07-03T01:11:27.017Z,20.24
2023-07-03T01:13:54.717Z,20.29
2023-07-03T01:16:21.288Z,20.30
2023-07-03T01:18:49.116Z,20.23
2023-07-03T01:21:19.738Z,20.29
2023-07-03T01:23:57.386Z,20.30
2023-07-03T01:26:25.713Z,20.06
2023-07-03T01:28:56.300Z,20.11
2023-07-03T01:31:23.130Z,19.96
2023-07-03T01:33:50.395Z,19.74
2023-07-03T01:36:16.849Z,19.79
2023-07-03T01:38:44.310Z,20.02
2023-07-03T01:41:12.588Z,20.02
2023-07-03T01:43:39.117Z,19.61
2023-07-03T01:46:06.009Z,19.58
2023-07-03T01:48:32.917Z,19.48
2023-07-03T01:51:00.571Z,19.72
2023-07-03T01:53:27.794Z,19.87
2023-07-03T01:55:57.647Z,19.86
2023-07-03T01:58:31.086Z,19.88
2023-07-03T02:01:01.289Z,19.88
2023-07-03T02:03:32.273Z,19.83
2023-07-03T02:05:59.870Z,19.86
2023-07-03T02:08:26.473Z,19.89
2023-07-03T02:10:54.569Z,19.90
2023-07-03T02:13:21.023Z,19.90
2023-07-03T02:15:47.571Z,19.94
2023-07-03T02:18:18.789Z,19.97
2023-07-03T02:20:46.348Z,19.99
2023-07-03T02:23:12.889Z,20.03
2023-07-03T02:25:44.952Z,19.98
2023-07-03T02:28:12.292Z,19.95
2023-07-03T02:30:38.769Z,20.04
2023-07-03T02:33:05.325Z,20.08
2023-07-03T02:35:31.891Z,20.10
2023-07-03T02:37:58.350Z,20.11
2023-07-03T02:40:24.879Z,20.12
2023-07-03T02:42:51.541Z,20.07
2023-07-03T02:45:18.077Z,20.10
2023-07-03T02:47:44.901Z,20.14
2023-07-03T02:50:13.725Z,20.16
2023-07-03T02:52:40.400Z,20.12
2023-07-03T02:55:09.758Z,20.10
2023-07-03T02:57:36.242Z,20.12
2023-07-03T03:00:03.862Z,20.07
2023-07-03T03:02:30.489Z,20.03
2023-07-03T03:04:57.077Z,19.94
2023-07-03T03:07:23.783Z,20.03
2023-07-03T03:09:50.430Z,20.12
2023-07-03T03:12:18.092Z,20.14
2023-07-03T03:14:44.760Z,20.14
2023-07-03T03:17:11.247Z,20.13
2023-07-03T03:19:37.693Z,20.12
2023-07-03T03:22:04.649Z,20.13
2023-07-03T03:24:31.711Z,20.11
2023-07-03T03:26:58.317Z,20.12
2023-07-03T03:29:24.821Z,20.13
2023-07-03T03:31:51.378Z,20.12
2023-07-03T03:34:18.005Z,20.12
2023-07-03T03:36:44.583Z,20.14
2023-07-03T03:39:11.167Z,20.10
2023-07-03T03:41:37.811Z,20.13
2023-07-03T03:44:05.103Z,20.17
2023-07-03T03:46:31.617Z,20.16
2023-07-03T03:48:58.287Z,20.21
2023-07-03T03:51:25.660Z,20.19
2023-07-03T03:53:52.349Z,20.16
2023-07-03T03:56:20.693Z,20.21
2023-07-03T03:58:47.690Z,20.22
2023-07-03T04:01:14.510Z,20.20
2023-07-03T04:03:40.982Z,19.97
2023-07-03T04:06:08.085Z,20.11
2023-07-03T04:08:34.599Z,20.16
2023-07-03T04:11:01.121Z,20.08
2023-07-03T04:13:27.555Z,20.06
2023-07-03T04:15:54.444Z,20.05
2023-07-03T04:18:21.745Z,19.98
2023-07-03T04:20:49.589Z,19.94
2023-07-03T04:23:16.373Z,20.16
2023-07-03T04:25:45.863Z,20.17
2023-07-03T04:28:12.655Z,20.23
2023-07-03T04:30:39.110Z,20.31
2023-07-03T04:33:05.599Z,20.48
2023-07-03T04:35:32.088Z,20.55
2023-07-03T04:37:58.516Z,20.52
2023-07-03T04:40:24.957Z,20.56
2023-07-03T04:42:51.478Z,20.57
2023-07-03T04:45:18.006Z,20.38
2023-07-03T04:47:44.501Z,20.50
2023-07-03T04:50:12.050Z,20.48
2023-07-03T04:52:39.908Z,20.50
2023-07-03T04:55:07.318Z,20.53
2023-07-03T04:57:33.757Z,20.62
2023-07-03T05:00:01.715Z,20.66
2023-07-03T05:02:29.689Z,20.74
2023-07-03T05:04:58.709Z,20.81
2023-07-03T05:07:25.196Z,20.80
2023-07-03T05:09:51.722Z,20.64
2023-07-03T05:12:18.317Z,20.79
2023-07-03T05:14:44.756Z,20.89
2023-07-03T05:17:11.197Z,20.98
2023-07-03T05:19:37.670Z,21.03
2023-07-03T05:22:04.147Z,20.95
2023-07-03T05:24:30.646Z,20.99
2023-07-03T05:26:57.074Z,21.02
2023-07-03T05:29:23.705Z,20.77
2023-07-03T05:31:50.259Z,20.95
2023-07-03T05:34:16.844Z,21.01
2023-07-03T05:36:44.080Z,21.31
2023-07-03T05:39:10.587Z,21.29
2023-07-03T05:41:37.038Z,21.23
2023-07-03T05:44:03.550Z,21.29
2023-07-03T05:46:30.119Z,21.35
2023-07-03T05:48:56.586Z,21.19
2023-07-03T05:51:23.023Z,21.19
2023-07-03T05:53:50.480Z,21.56
2023-07-03T05:56:16.932Z,21.66
2023-07-03T05:58:43.362Z,21.64
2023-07-03T06:01:09.841Z,21.57
2023-07-03T06:03:36.392Z,21.87
2023-07-03T06:06:05.760Z,21.76
2023-07-03T06:08:32.232Z,22.05
2023-07-03T06:10:58.822Z,22.20
2023-07-03T06:13:25.311Z,21.79
2023-07-03T06:15:51.911Z,21.93
2023-07-03T06:18:18.622Z,22.00
2023-07-03T06:20:45.487Z,22.28
2023-07-03T06:23:11.953Z,22.23
2023-07-03T06:25:38.423Z,22.38
2023-07-03T06:28:04.947Z,22.51
2023-07-03T06:30:31.371Z,22.71
2023-07-03T06:32:58.362Z,22.50
2023-07-03T06:35:25.303Z,22.06
2023-07-03T06:37:57.032Z,22.48
2023-07-03T06:40:23.541Z,22.44
2023-07-03T06:42:50.009Z,22.26
2023-07-03T06:45:19.445Z,22.52
2023-07-03T06:47:45.929Z,22.24
2023-07-03T06:50:12.456Z,22.73
2023-07-03T06:52:38.975Z,22.78
2023-07-03T06:55:05.654Z,22.53
2023-07-03T06:57:32.188Z,22.44
2023-07-03T06:59:58.629Z,22.78
2023-07-03T07:02:25.142Z,22.13
2023-07-03T07:04:56.323Z,22.50
2023-07-03T07:07:22.988Z,22.51
2023-07-03T07:09:49.467Z,22.50
2023-07-03T07:12:15.863Z,22.59
2023-07-03T07:14:42.437Z,22.66
2023-07-03T07:17:08.904Z,22.08
2023-07-03T07:19:35.429Z,22.20
2023-07-03T07:22:01.895Z,21.82
2023-07-03T07:24:29.311Z,21.62
2023-07-03T07:26:56.341Z,21.99
2023-07-03T07:29:23.392Z,22.36
2023-07-03T07:31:49.892Z,22.39
2023-07-03T07:34:16.356Z,22.38
2023-07-03T07:36:43.043Z,22.60
2023-07-03T07:39:09.498Z,22.61
2023-07-03T07:41:36.079Z,22.62
2023-07-03T07:44:02.582Z,22.59
2023-07-03T07:46:30.371Z,22.22
2023-07-03T07:48:57.694Z,22.27
2023-07-03T07:51:25.240Z,22.42
2023-07-03T07:53:52.237Z,22.58
2023-07-03T07:56:18.760Z,22.48
2023-07-03T07:58:45.190Z,22.38
2023-07-03T08:01:12.396Z,22.37
2023-07-03T08:03:40.366Z,22.51
2023-07-03T08:06:06.849Z,22.68
2023-07-03T08:08:33.606Z,22.08
2023-07-03T08:11:00.807Z,22.72
2023-07-03T08:13:28.389Z,22.67
2023-07-03T08:15:55.497Z,22.83
2023-07-03T08:18:22.298Z,23.19
2023-07-03T08:20:49.854Z,23.16
2023-07-03T08:23:16.404Z,23.31
2023-07-03T08:25:42.923Z,23.38
2023-07-03T08:28:09.772Z,23.42
2023-07-03T08:30:36.503Z,23.09
2023-07-03T08:33:03.395Z,23.09
2023-07-03T08:38:03.413Z,22.82
2023-07-03T08:40:29.962Z,22.99
2023-07-03T08:42:57.935Z,22.71
2023-07-03T08:45:26.448Z,22.82
2023-07-03T08:47:53.198Z,23.37
2023-07-03T08:50:32.027Z,23.30
2023-07-03T08:53:05.009Z,23.81
2023-07-03T08:55:38.860Z,24.11
2023-07-03T08:58:05.362Z,24.04
2023-07-03T09:00:34.194Z,24.18
2023-07-03T09:03:10.063Z,23.86
2023-07-03T09:05:41.352Z,22.97
2023-07-03T09:08:08.817Z,23.72
2023-07-03T09:10:39.478Z,24.01
2023-07-03T09:13:08.967Z,24.33
2023-07-03T09:15:36.666Z,24.74
2023-07-03T09:18:03.892Z,24.30
2023-07-03T09:20:30.397Z,24.32
2023-07-03T09:22:58.948Z,24.51
2023-07-03T09:25:27.805Z,24.02
2023-07-03T09:27:54.773Z,23.90
2023-07-03T09:30:21.241Z,23.84
2023-07-03T09:32:47.922Z,24.26
2023-07-03T09:35:18.403Z,24.22
2023-07-03T09:37:48.800Z,24.04
2023-07-03T09:40:16.946Z,24.70
2023-07-03T09:42:43.497Z,24.98
2023-07-03T09:45:17.759Z,24.88
2023-07-03T09:48:10.604Z,24.76
2023-07-03T09:50:38.685Z,24.18
2023-07-03T09:53:09.381Z,23.52
2023-07-03T09:55:36.821Z,23.49
2023-07-03T09:58:11.030Z,23.81
2023-07-03T10:00:44.481Z,24.34
2023-07-03T10:08:12.339Z,25.12
2023-07-03T10:13:13.963Z,25.00
2023-07-03T10:15:40.986Z,25.55
2023-07-03T10:18:10.026Z,25.65
2023-07-03T10:20:37.391Z,25.72
2023-07-03T10:23:04.528Z,26.19
2023-07-03T10:25:54.642Z,25.75
2023-07-03T10:28:26.001Z,25.45
2023-07-03T10:30:54.780Z,25.23
2023-07-03T10:33:22.576Z,25.35
2023-07-03T10:35:50.465Z,25.49
2023-07-03T10:38:20.022Z,25.61
2023-07-03T10:41:04.845Z,25.81
2023-07-03T10:43:32.556Z,25.50
2023-07-03T10:45:59.199Z,25.52
2023-07-03T10:48:27.621Z,25.50
2023-07-03T10:50:58.313Z,25.61
2023-07-03T10:53:24.748Z,25.41
2023-07-03T10:56:02.806Z,25.28
2023-07-03T10:58:48.128Z,25.24
2023-07-03T11:01:23.356Z,25.19
2023-07-03T11:04:00.660Z,24.99
2023-07-03T11:06:38.899Z,25.26
2023-07-03T11:09:10.320Z,25.33
2023-07-03T11:11:51.061Z,25.41
2023-07-03T11:14:19.558Z,24.68
2023-07-03T11:16:49.125Z,24.75
2023-07-03T11:24:26.368Z,25.22
2023-07-03T11:29:25.006Z,25.10
2023-07-03T11:31:51.856Z,24.91
2023-07-03T11:36:51.465Z,24.74
2023-07-03T11:44:34.049Z,25.17
2023-07-03T11:47:01.303Z,25.35
2023-07-03T11:49:35.307Z,25.05
2023-07-03T11:52:02.491Z,25.46
2023-07-03T11:54:30.004Z,25.42
2023-07-03T11:56:57.516Z,25.53
2023-07-03T11:59:26.354Z,25.58
2023-07-03T12:01:53.853Z,25.35
2023-07-03T12:04:41.679Z,25.35
2023-07-03T12:07:10.706Z,25.32
2023-07-03T12:09:37.495Z,25.27
2023-07-03T12:12:04.347Z,25.56
2023-07-03T12:14:43.026Z,25.41
2023-07-03T12:17:19.802Z,25.40
2023-07-03T12:19:46.559Z,25.14
2023-07-03T12:22:13.856Z,25.13
2023-07-03T12:24:40.299Z,25.24
2023-07-03T12:27:07.620Z,24.86
2023-07-03T12:29:35.054Z,25.04
2023-07-03T12:32:11.609Z,25.28
2023-07-03T12:34:39.330Z,25.06
2023-07-03T12:37:07.197Z,25.11
2023-07-03T12:39:35.312Z,25.21
2023-07-03T12:42:06.486Z,25.25
2023-07-03T12:44:32.975Z,25.18
2023-07-03T12:47:07.423Z,25.36
2023-07-03T12:49:33.932Z,25.19
2023-07-03T12:52:02.347Z,25.55
2023-07-03T12:54:28.881Z,25.58
2023-07-03T12:56:55.308Z,25.95
2023-07-03T12:59:22.648Z,25.79
2023-07-03T13:01:53.554Z,25.93
2023-07-03T13:04:27.407Z,25.80
2023-07-03T13:06:54.134Z,25.87
2023-07-03T13:09:20.701Z,25.82
2023-07-03T13:11:47.221Z,25.90
2023-07-03T13:14:19.054Z,26.01
2023-07-03T13:16:47.167Z,26.07
2023-07-03T13:19:26.644Z,25.90
2023-07-03T13:21:53.243Z,25.77
2023-07-03T13:24:20.677Z,25.92
2023-07-03T13:26:48.688Z,26.14
2023-07-03T13:29:15.652Z,26.20
2023-07-03T13:31:51.366Z,26.41
2023-07-03T13:34:20.650Z,26.22
2023-07-03T13:36:51.022Z,26.33
2023-07-03T13:39:17.483Z,26.78
2023-07-03T13:41:44.325Z,26.26
2023-07-03T13:44:11.738Z,26.49
2023-07-03T13:46:39.297Z,25.74
2023-07-03T13:49:06.866Z,25.84
2023-07-03T13:51:33.819Z,25.53
2023-07-03T13:54:11.063Z,25.98
2023-07-03T13:56:38.844Z,26.21
2023-07-03T13:59:05.642Z,25.86
2023-07-03T14:01:33.336Z,26.08
2023-07-03T14:04:00.451Z,26.05
2023-07-03T14:06:27.035Z,26.27
2023-07-03T14:08:53.531Z,26.02
2023-07-03T14:11:19.972Z,25.67
2023-07-03T14:13:46.887Z,25.82
2023-07-03T14:16:13.694Z,25.93
2023-07-03T14:18:40.268Z,25.80
2023-07-03T14:21:06.870Z,25.78
2023-07-03T14:23:34.824Z,26.12
2023-07-03T14:26:04.273Z,26.16
2023-07-03T14:28:31.153Z,26.23
2023-07-03T14:30:57.637Z,26.29
2023-07-03T14:33:24.139Z,26.48
2023-07-03T14:35:50.894Z,26.72
2023-07-03T14:38:17.852Z,26.44
2023-07-03T14:40:44.288Z,26.45
2023-07-03T14:43:10.723Z,26.55
2023-07-03T14:45:37.187Z,26.54
2023-07-03T14:48:03.876Z,26.73
2023-07-03T14:50:30.383Z,27.08
2023-07-03T14:52:56.803Z,27.00
2023-07-03T14:55:23.573Z,27.13
2023-07-03T14:57:51.707Z,26.91
2023-07-03T15:00:18.792Z,26.82
2023-07-03T15:02:49.383Z,26.87
2023-07-03T15:05:17.095Z,26.36
2023-07-03T15:07:43.752Z,26.33
2023-07-03T15:10:12.256Z,26.40
2023-07-03T15:12:42.601Z,26.12
2023-07-03T15:15:09.253Z,26.25
2023-07-03T15:17:37.204Z,26.00
2023-07-03T15:20:05.524Z,26.39
2023-07-03T15:22:32.121Z,26.77
2023-07-03T15:24:59.102Z,27.31
2023-07-03T15:27:25.790Z,27.69
2023-07-03T15:29:52.240Z,28.12
2023-07-03T15:32:19.361Z,27.82
2023-07-03T15:34:52.482Z,27.87
2023-07-03T15:37:18.991Z,27.28
2023-07-03T15:39:46.078Z,28.51
2023-07-03T15:42:12.880Z,29.44
2023-07-03T15:44:39.587Z,28.86
2023-07-03T15:47:06.684Z,29.13
2023-07-03T15:49:35.127Z,29.88
2023-07-03T15:52:04.086Z,30.17
2023-07-03T15:54:30.728Z,30.39
2023-07-03T15:56:57.292Z,30.88
2023-07-03T15:59:24.134Z,31.15
2023-07-03T16:01:50.869Z,31.16
2023-07-03T16:04:17.454Z,30.46
2023-07-03T16:06:43.906Z,28.97
2023-07-03T16:09:10.538Z,28.56
2023-07-03T16:11:38.306Z,27.99
2023-07-03T16:14:04.999Z,27.64
2023-07-03T16:16:31.696Z,27.44
2023-07-03T16:18:58.948Z,27.19
2023-07-03T16:21:26.597Z,27.26
2023-07-03T16:23:54.499Z,27.21
2023-07-03T16:26:21.717Z,26.91
2023-07-03T16:28:48.157Z,27.02
2023-07-03T16:31:19.007Z,26.91
2023-07-03T16:33:46.736Z,26.51
2023-07-03T16:36:17.387Z,26.64
2023-07-03T16:38:57.223Z,26.65
2023-07-03T16:41:29.319Z,26.50
2023-07-03T16:44:14.504Z,26.30
2023-07-03T16:46:41.619Z,26.12
2023-07-03T16:49:08.482Z,25.96
2023-07-03T16:51:35.140Z,26.09
2023-07-03T16:54:02.295Z,26.21
2023-07-03T16:56:29.669Z,26.30
2023-07-03T16:59:00.737Z,26.34
2023-07-03T17:01:29.709Z,26.23
2023-07-03T17:03:56.711Z,26.21
2023-07-03T17:06:26.549Z,26.09
2023-07-03T17:08:54.046Z,26.04
2023-07-03T17:11:20.727Z,25.88
2023-07-03T17:13:49.044Z,25.78
2023-07-03T17:16:16.678Z,25.84
2023-07-03T17:18:43.607Z,25.91
2023-07-03T17:21:10.318Z,26.02
2023-07-03T17:23:36.931Z,25.96
2023-07-03T17:26:04.174Z,25.96
2023-07-03T17:28:38.518Z,25.99
2023-07-03T17:31:06.107Z,25.80
2023-07-03T17:33:33.581Z,25.76
2023-07-03T17:36:02.338Z,25.76
2023-07-03T17:38:29.555Z,25.57
2023-07-03T17:40:56.087Z,25.42
2023-07-03T17:43:24.229Z,25.39
2023-07-03T17:45:54.030Z,25.36
2023-07-03T17:48:21.588Z,25.44
2023-07-03T17:50:48.743Z,25.47
2023-07-03T17:53:21.976Z,25.31
2023-07-03T17:55:48.732Z,25.13
2023-07-03T17:58:15.444Z,25.10
2023-07-03T18:00:42.003Z,25.05
2023-07-03T18:03:08.592Z,25.01
2023-07-03T18:05:36.273Z,25.00
2023-07-03T18:08:03.898Z,24.93
2023-07-03T18:10:34.760Z,24.95
2023-07-03T18:13:01.794Z,24.96
2023-07-03T18:15:43.586Z,24.92
2023-07-03T18:18:15.597Z,24.95
2023-07-03T18:20:42.164Z,24.90
2023-07-03T18:23:09.076Z,24.87
2023-07-03T18:25:36.162Z,24.83
2023-07-03T18:28:03.015Z,24.74
2023-07-03T18:30:29.611Z,24.76
2023-07-03T18:32:56.525Z,24.67
2023-07-03T18:35:23.186Z,24.71
2023-07-03T18:37:49.768Z,24.70
2023-07-03T18:40:16.894Z,24.63
2023-07-03T18:42:43.598Z,24.63
2023-07-03T18:45:10.621Z,24.63
2023-07-03T18:47:37.857Z,24.62
2023-07-03T18:50:05.254Z,24.55
2023-07-03T18:52:32.528Z,24.58
2023-07-03T18:54:59.052Z,24.47
2023-07-03T18:57:25.580Z,24.49
2023-07-03T18:59:52.119Z,24.37
2023-07-03T19:02:18.899Z,24.32
2023-07-03T19:04:47.099Z,24.20
2023-07-03T19:07:14.048Z,24.30
2023-07-03T19:09:41.305Z,24.17
2023-07-03T19:12:08.308Z,23.97
2023-07-03T19:14:35.305Z,23.85
2023-07-03T19:17:02.257Z,23.96
2023-07-03T19:19:28.892Z,23.80
2023-07-03T19:21:55.567Z,23.93
2023-07-03T19:24:22.107Z,23.76
2023-07-03T19:26:50.345Z,23.79
2023-07-03T19:29:17.132Z,23.74
2023-07-03T19:31:44.012Z,23.68
2023-07-03T19:34:10.672Z,23.65
2023-07-03T19:36:37.597Z,23.64
2023-07-03T19:39:04.759Z,23.69
2023-07-03T19:41:31.875Z,23.66
2023-07-03T19:43:58.714Z,23.67
2023-07-03T19:46:25.809Z,23.70
2023-07-03T19:48:52.429Z,23.67
2023-07-03T19:51:19.091Z,23.58
2023-07-03T19:53:47.750Z,23.51
2023-07-03T19:56:18.698Z,23.39
2023-07-03T19:58:45.446Z,23.23
2023-07-03T20:01:12.980Z,23.43
2023-07-03T20:03:40.354Z,23.49
2023-07-03T20:06:22.005Z,23.10
2023-07-03T20:08:50.468Z,23.04
2023-07-03T20:11:17.916Z,23.21
2023-07-03T20:13:47.213Z,23.14
2023-07-03T20:16:13.930Z,23.14
2023-07-03T20:18:40.595Z,22.95
2023-07-03T20:21:08.752Z,23.13
2023-07-03T20:23:35.666Z,23.14
2023-07-03T20:26:04.554Z,23.16
2023-07-03T20:28:31.881Z,23.12
2023-07-03T20:30:58.684Z,23.07
2023-07-03T20:33:25.386Z,23.16
2023-07-03T20:35:59.511Z,23.15
2023-07-03T20:38:26.164Z,23.20
2023-07-03T20:43:43.043Z,23.05
2023-07-03T20:46:15.052Z,22.71
2023-07-03T20:48:43.203Z,22.64
2023-07-03T20:53:58.299Z,22.71
2023-07-03T20:56:29.980Z,22.62
2023-07-03T20:58:58.371Z,22.54
2023-07-03T21:01:27.571Z,22.52
2023-07-03T21:03:55.384Z,22.33
2023-07-03T21:06:24.300Z,22.22
2023-07-03T21:08:51.464Z,22.19
2023-07-03T21:11:20.698Z,22.14
2023-07-03T21:13:49.828Z,22.11
2023-07-03T21:16:18.601Z,22.09
2023-07-03T21:18:45.727Z,22.02
2023-07-03T21:21:20.480Z,21.97
2023-07-03T21:23:47.766Z,21.93
2023-07-03T21:26:17.228Z,21.93
2023-07-03T21:28:43.789Z,21.90
2023-07-03T21:31:13.103Z,21.90
2023-07-03T21:33:39.877Z,21.86
2023-07-03T21:36:12.087Z,21.75
2023-07-03T21:38:39.972Z,21.77
2023-07-03T21:41:07.318Z,21.71
2023-07-03T21:43:34.189Z,21.64
2023-07-03T21:46:04.230Z,21.65
2023-07-03T21:48:32.125Z,21.65
2023-07-03T21:50:58.950Z,21.66
2023-07-03T21:53:25.509Z,21.64
2023-07-03T21:55:52.939Z,21.55
2023-07-03T21:58:20.053Z,21.51
2023-07-03T22:00:48.972Z,21.52
2023-07-03T22:03:16.731Z,21.53
2023-07-03T22:05:43.279Z,21.47
2023-07-03T22:08:09.824Z,21.50
2023-07-03T22:10:36.342Z,21.50
2023-07-03T22:13:02.908Z,21.43
2023-07-03T22:15:29.476Z,21.43
2023-07-03T22:17:56.065Z,21.38
2023-07-03T22:20:23.404Z,21.27
2023-07-03T22:22:52.364Z,21.38
2023-07-03T22:25:19.852Z,21.47
2023-07-03T22:27:47.988Z,21.51
2023-07-03T22:30:15.685Z,21.52
2023-07-03T22:32:43.054Z,21.45
2023-07-03T22:35:11.719Z,21.46
2023-07-03T22:37:38.579Z,21.55
2023-07-03T22:40:10.261Z,21.60
2023-07-03T22:42:40.644Z,21.64
2023-07-03T22:45:09.980Z,21.51
2023-07-03T22:47:36.637Z,21.63
2023-07-03T22:50:03.904Z,21.75
2023-07-03T22:52:31.426Z,21.80
2023-07-03T22:54:59.229Z,21.84
2023-07-03T22:57:25.989Z,21.73
2023-07-03T22:59:54.067Z,21.84
2023-07-03T23:02:21.040Z,21.72
2023-07-03T23:04:48.076Z,21.65
2023-07-03T23:07:15.687Z,21.53
2023-07-03T23:09:43.969Z,21.48
2023-07-03T23:12:11.318Z,21.42
2023-07-03T23:14:38.540Z,21.39
2023-07-03T23:17:05.582Z,21.52
2023-07-03T23:19:32.634Z,21.44
2023-07-03T23:21:59.287Z,21.32
2023-07-03T23:24:29.837Z,21.37
2023-07-03T23:26:56.777Z,21.38
2023-07-03T23:29:23.286Z,21.31
2023-07-03T23:31:50.534Z,21.26
2023-07-03T23:34:17.147Z,21.25
2023-07-03T23:36:43.748Z,21.19
2023-07-03T23:39:10.571Z,21.17
2023-07-03T23:41:38.070Z,21.12
2023-07-03T23:44:05.348Z,21.09
2023-07-03T23:46:33.044Z,21.06
2023-07-03T23:49:03.202Z,21.05
2023-07-03T23:51:32.644Z,21.00
2023-07-03T23:54:00.122Z,20.96
2023-07-03T23:56:26.630Z,20.82
2023-07-03T23:58:53.187Z,20.67
